Time;durP1;ratioP1;P1;durP2;ratioP2;P2;SDS_P1;SDS_P2;PMS_P1;PMS_P2;Temp;Humidity;BMP_temperature;BMP_pressure;BME280_temperature;BME280_humidity;BME280_pressure;Samples;Min_cycle;Max_cycle;Signal;HPM_P1;HPM_P2
2022/05/15 00:02:20;;;;;;;5.83;3.17;;;13.00;98.50;;;;;;5067992;28;20239;-66
2022/05/15 00:04:47;;;;;;;8.07;2.90;;;12.90;98.60;;;;;;5074247;28;20292;-66
2022/05/15 00:07:14;;;;;;;8.93;3.20;;;12.90;98.60;;;;;;5072800;28;20205;-66
2022/05/15 00:09:43;;;;;;;6.87;2.80;;;12.90;98.70;;;;;;5074341;28;20201;-66
2022/05/15 00:12:11;;;;;;;6.30;2.90;;;12.90;98.80;;;;;;5071871;28;20297;-67
2022/05/15 00:14:37;;;;;;;7.30;2.93;;;12.80;98.80;;;;;;5080395;28;20254;-67
2022/05/15 00:17:05;;;;;;;5.60;2.90;;;12.80;99.00;;;;;;5079657;28;20201;-66
2022/05/15 00:19:31;;;;;;;5.23;2.90;;;12.80;99.50;;;;;;5073553;28;20213;-67
2022/05/15 00:21:58;;;;;;;5.13;2.80;;;12.70;99.40;;;;;;5071873;28;20633;-67
2022/05/15 00:24:28;;;;;;;7.37;3.03;;;12.70;99.60;;;;;;5073692;28;20300;-66
2022/05/15 00:26:56;;;;;;;9.70;3.30;;;12.60;99.70;;;;;;5072964;28;20267;-66
2022/05/15 00:29:23;;;;;;;5.93;3.03;;;12.60;99.90;;;;;;5073885;28;20244;-66
2022/05/15 00:31:50;;;;;;;7.67;3.43;;;12.60;99.90;;;;;;5072443;28;20205;-66
2022/05/15 00:34:16;;;;;;;7.63;3.30;;;12.50;99.90;;;;;;5072720;28;20209;-66
2022/05/15 00:36:43;;;;;;;5.40;2.90;;;12.50;99.90;;;;;;5071658;28;20205;-66
2022/05/15 00:39:11;;;;;;;6.37;3.10;;;12.40;99.90;;;;;;5073547;28;20211;-66
2022/05/15 00:41:39;;;;;;;8.83;2.77;;;12.40;99.90;;;;;;5071803;28;20661;-67
2022/05/15 00:44:09;;;;;;;11.17;3.00;;;12.40;99.90;;;;;;5071934;28;20217;-67
2022/05/15 00:46:38;;;;;;;6.47;2.80;;;12.40;99.90;;;;;;5073117;28;20219;-68
2022/05/15 00:49:07;;;;;;;7.63;3.53;;;12.30;99.90;;;;;;5059496;28;20210;-66
2022/05/15 00:51:40;;;;;;;4.40;2.47;;;12.30;99.90;;;;;;5061034;28;20225;-67
2022/05/15 00:54:12;;;;;;;9.67;2.93;;;12.30;99.90;;;;;;5087445;28;20204;-67
2022/05/15 00:56:43;;;;;;;8.57;2.63;;;12.30;99.90;;;;;;5072108;28;20261;-67
2022/05/15 00:59:14;;;;;;;6.67;2.90;;;12.20;99.90;;;;;;5073693;28;20244;-67
2022/05/15 01:01:42;;;;;;;5.30;2.70;;;12.30;99.90;;;;;;5084806;28;20223;-65
2022/05/15 01:04:09;;;;;;;6.13;2.83;;;12.20;99.90;;;;;;5076109;28;20549;-65
2022/05/15 01:06:37;;;;;;;5.50;2.40;;;12.20;99.90;;;;;;5072095;28;20217;-64
2022/05/15 01:09:05;;;;;;;4.80;2.47;;;12.30;99.90;;;;;;5074392;28;20205;-65
2022/05/15 01:11:35;;;;;;;5.73;2.60;;;12.20;99.90;;;;;;5065918;28;20205;-65
2022/05/15 01:14:07;;;;;;;5.40;2.23;;;12.20;99.90;;;;;;5065553;28;20246;-64
2022/05/15 01:16:36;;;;;;;6.47;2.50;;;12.20;99.90;;;;;;5073435;28;20570;-66
2022/05/15 01:19:04;;;;;;;6.23;2.17;;;12.20;99.90;;;;;;5074101;28;20205;-65
2022/05/15 01:21:35;;;;;;;4.93;2.60;;;12.20;99.90;;;;;;5073813;28;20263;-65
2022/05/15 01:24:04;;;;;;;4.67;2.23;;;12.10;99.90;;;;;;5074200;28;20635;-66
2022/05/15 01:26:32;;;;;;;4.10;2.90;;;12.10;99.90;;;;;;5072310;28;20213;-65
2022/05/15 01:28:59;;;;;;;6.83;2.43;;;12.10;99.90;;;;;;5076375;28;20307;-65
2022/05/15 01:31:27;;;;;;;7.30;2.03;;;12.10;99.90;;;;;;5077998;28;20657;-65
2022/05/15 01:33:54;;;;;;;5.60;2.80;;;12.00;99.90;;;;;;5071061;28;20209;-65
2022/05/15 01:36:23;;;;;;;6.77;2.60;;;12.00;99.90;;;;;;5081097;28;20649;-65
2022/05/15 01:38:52;;;;;;;4.83;2.23;;;12.00;99.90;;;;;;5068071;28;20228;-65
2022/05/15 01:41:19;;;;;;;5.43;2.30;;;11.90;99.90;;;;;;5074102;28;20565;-64
2022/05/15 01:43:49;;;;;;;6.77;2.60;;;11.80;99.90;;;;;;5077223;28;20224;-65
2022/05/15 01:46:15;;;;;;;6.83;2.07;;;11.90;99.90;;;;;;5076888;28;20256;-65
2022/05/15 01:48:42;;;;;;;8.53;2.27;;;11.80;99.90;;;;;;5077504;28;20216;-65
2022/05/15 01:51:09;;;;;;;7.47;2.10;;;11.80;99.90;;;;;;5078232;28;20544;-65
2022/05/15 01:53:36;;;;;;;6.43;2.13;;;11.80;99.90;;;;;;5076067;28;20235;-65
2022/05/15 01:56:06;;;;;;;6.77;2.20;;;11.80;99.90;;;;;;5080054;28;20217;-66
2022/05/15 01:58:33;;;;;;;6.53;2.20;;;11.70;99.90;;;;;;5077618;28;20251;-66
2022/05/15 02:01:00;;;;;;;6.43;2.00;;;11.70;99.90;;;;;;5064395;28;20217;-65
2022/05/15 02:03:27;;;;;;;3.47;2.17;;;11.70;99.90;;;;;;5076613;28;20201;-65
2022/05/15 02:05:54;;;;;;;4.30;1.90;;;11.60;99.90;;;;;;5076723;28;20613;-65
2022/05/15 02:08:21;;;;;;;3.37;2.13;;;11.70;99.90;;;;;;5074447;28;20204;-65
2022/05/15 02:10:48;;;;;;;6.23;2.00;;;11.60;99.90;;;;;;5065391;28;20637;-65
2022/05/15 02:13:16;;;;;;;7.03;2.30;;;11.50;99.90;;;;;;5077210;28;20233;-64
2022/05/15 02:15:43;;;;;;;6.37;2.30;;;11.50;99.90;;;;;;5077654;28;20216;-65
2022/05/15 02:18:10;;;;;;;4.70;2.20;;;11.50;99.90;;;;;;5076763;28;20217;-65
2022/05/15 02:20:37;;;;;;;5.77;2.40;;;11.50;99.90;;;;;;5076932;28;20232;-65
2022/05/15 02:23:04;;;;;;;7.90;2.43;;;11.40;99.90;;;;;;5075931;28;20202;-65
2022/05/15 02:25:31;;;;;;;7.13;2.43;;;11.40;99.90;;;;;;5076328;28;20202;-66
2022/05/15 02:27:59;;;;;;;6.97;2.33;;;11.40;99.90;;;;;;5071234;28;20210;-65
2022/05/15 02:30:28;;;;;;;6.57;2.30;;;11.40;99.90;;;;;;5067091;28;20221;-64
2022/05/15 02:32:55;;;;;;;7.60;2.20;;;11.40;99.90;;;;;;5078850;28;20247;-64
2022/05/15 02:35:22;;;;;;;2.93;1.97;;;11.30;99.90;;;;;;5088811;28;20213;-65
2022/05/15 02:37:49;;;;;;;8.00;2.63;;;11.30;99.90;;;;;;5070983;28;20205;-65
2022/05/15 02:40:17;;;;;;;7.77;2.30;;;11.30;99.90;;;;;;5063509;28;20276;-63
2022/05/15 02:42:45;;;;;;;6.00;1.93;;;11.30;99.90;;;;;;5075879;28;20241;-65
2022/05/15 02:45:12;;;;;;;8.20;2.20;;;11.30;99.90;;;;;;5090776;28;20217;-65
2022/05/15 02:47:41;;;;;;;5.77;1.83;;;11.30;99.90;;;;;;5079001;28;20232;-64
2022/05/15 02:52:55;;;;;;;5.60;1.80;;;11.30;99.90;;;;;;5075786;28;20219;-65
2022/05/15 02:55:22;;;;;;;3.63;1.80;;;11.30;99.90;;;;;;5074551;28;20344;-65
2022/05/15 02:57:50;;;;;;;4.43;1.70;;;11.30;99.90;;;;;;5075429;28;20293;-64
2022/05/15 03:00:20;;;;;;;4.70;1.90;;;11.30;99.90;;;;;;5076435;28;20220;-65
2022/05/15 03:02:49;;;;;;;7.60;2.07;;;11.30;99.90;;;;;;5083177;28;20626;-65
2022/05/15 03:05:17;;;;;;;3.53;1.87;;;11.30;99.90;;;;;;5077271;28;20292;-65
2022/05/15 03:07:44;;;;;;;5.50;1.87;;;11.30;99.90;;;;;;5071250;28;20240;-65
2022/05/15 03:10:13;;;;;;;5.27;1.90;;;11.30;99.90;;;;;;5074883;28;20205;-65
2022/05/15 03:12:40;;;;;;;6.17;1.70;;;11.20;99.90;;;;;;5072877;28;20239;-66
2022/05/15 03:15:08;;;;;;;4.83;1.60;;;11.20;99.90;;;;;;5086756;28;20236;-65
2022/05/15 03:17:35;;;;;;;4.70;2.30;;;11.20;99.90;;;;;;5075252;28;20244;-65
2022/05/15 03:20:05;;;;;;;6.83;2.50;;;11.30;99.90;;;;;;5077017;28;20738;-66
2022/05/15 03:22:32;;;;;;;4.53;2.00;;;11.30;99.90;;;;;;5075608;28;20229;-64
2022/05/15 03:24:59;;;;;;;5.23;2.20;;;11.30;99.90;;;;;;5076431;28;20208;-65
2022/05/15 03:27:26;;;;;;;8.80;2.53;;;11.30;99.90;;;;;;5075026;28;20569;-65
2022/05/15 03:29:53;;;;;;;5.37;1.93;;;11.30;99.90;;;;;;5076613;28;20233;-64
2022/05/15 03:32:20;;;;;;;7.43;1.80;;;11.40;99.90;;;;;;5075845;28;20247;-66
2022/05/15 03:34:47;;;;;;;7.20;2.30;;;11.40;99.90;;;;;;5076280;28;20233;-65
2022/05/15 03:37:15;;;;;;;5.90;2.23;;;11.40;99.90;;;;;;5071344;28;20244;-65
2022/05/15 03:39:42;;;;;;;5.00;1.87;;;11.50;99.90;;;;;;5058259;28;20292;-65
2022/05/15 03:42:09;;;;;;;5.77;2.33;;;11.50;99.90;;;;;;5072906;28;20316;-65
2022/05/15 03:44:37;;;;;;;7.17;2.30;;;11.50;99.90;;;;;;5076093;28;20227;-65
2022/05/15 03:47:05;;;;;;;7.20;2.23;;;11.50;99.90;;;;;;5074003;28;20255;-65
2022/05/15 03:49:32;;;;;;;8.00;2.70;;;11.60;99.90;;;;;;5075999;28;20202;-65
2022/05/15 03:51:59;;;;;;;5.47;2.60;;;11.60;99.90;;;;;;5073932;28;20635;-65
2022/05/15 03:54:27;;;;;;;5.93;2.63;;;11.60;99.90;;;;;;5074597;28;20215;-64
2022/05/15 03:56:54;;;;;;;5.07;2.70;;;11.60;99.90;;;;;;5075371;28;20236;-66
2022/05/15 03:59:25;;;;;;;6.57;2.40;;;11.60;99.90;;;;;;5074988;28;20266;-65
2022/05/15 04:01:52;;;;;;;8.43;2.70;;;11.60;99.90;;;;;;5075324;28;20221;-65
2022/05/15 04:04:19;;;;;;;4.53;2.50;;;11.70;99.90;;;;;;5076170;28;20303;-65
2022/05/15 04:06:46;;;;;;;4.93;2.50;;;11.70;99.90;;;;;;5075844;28;20208;-66
2022/05/15 04:09:14;;;;;;;4.03;2.17;;;11.80;99.90;;;;;;5074133;28;20405;-65
2022/05/15 04:11:42;;;;;;;10.33;2.63;;;11.80;99.90;;;;;;5073223;28;20228;-65
2022/05/15 04:14:09;;;;;;;6.63;2.80;;;11.90;99.90;;;;;;5072410;28;20243;-65
2022/05/15 04:16:37;;;;;;;3.57;2.00;;;11.90;99.90;;;;;;5075871;28;20244;-65
2022/05/15 04:19:04;;;;;;;7.23;2.00;;;12.00;99.90;;;;;;5075065;28;20209;-66
2022/05/15 04:21:36;;;;;;;8.77;2.10;;;12.00;99.90;;;;;;5074290;28;20267;-66
2022/05/15 04:24:04;;;;;;;4.93;2.00;;;12.00;99.90;;;;;;5068371;28;20211;-65
2022/05/15 04:26:31;;;;;;;5.93;2.40;;;12.10;99.90;;;;;;5066710;28;20206;-65
2022/05/15 04:29:00;;;;;;;7.37;2.40;;;12.10;99.90;;;;;;5072531;28;20320;-65
2022/05/15 04:31:27;;;;;;;7.30;2.60;;;12.10;99.90;;;;;;5073838;28;20212;-65
2022/05/15 04:33:54;;;;;;;7.70;2.60;;;12.00;99.90;;;;;;5074441;28;20211;-66
2022/05/15 04:36:20;;;;;;;4.83;2.07;;;12.10;99.90;;;;;;5075022;28;20209;-66
2022/05/15 04:38:47;;;;;;;6.23;2.47;;;12.10;99.90;;;;;;5074044;28;20212;-66
2022/05/15 04:41:14;;;;;;;5.67;2.23;;;12.20;99.90;;;;;;5075237;28;20255;-65
2022/05/15 04:43:41;;;;;;;8.03;2.43;;;12.20;99.90;;;;;;5073891;28;20205;-65
2022/05/15 04:46:09;;;;;;;4.30;2.20;;;12.20;99.90;;;;;;5073703;28;20300;-65
2022/05/15 04:48:36;;;;;;;5.20;2.00;;;12.20;99.90;;;;;;5074731;28;20213;-64
2022/05/15 04:51:03;;;;;;;9.17;2.50;;;12.30;99.90;;;;;;5074797;28;20676;-66
2022/05/15 04:53:31;;;;;;;3.40;2.33;;;12.30;99.90;;;;;;5074717;28;20265;-65
2022/05/15 04:55:58;;;;;;;6.17;2.83;;;12.30;99.90;;;;;;5075526;28;20208;-66
2022/05/15 04:58:25;;;;;;;7.83;2.13;;;12.30;99.90;;;;;;5061600;28;20624;-66
2022/05/15 05:00:52;;;;;;;3.97;2.17;;;12.40;99.90;;;;;;5071120;28;20264;-65
2022/05/15 05:03:21;;;;;;;3.57;1.90;;;12.40;99.90;;;;;;5074171;28;20208;-66
2022/05/15 05:05:48;;;;;;;5.20;1.97;;;12.40;99.90;;;;;;5078910;28;20229;-65
2022/05/15 05:08:15;;;;;;;5.03;2.10;;;12.40;99.90;;;;;;5077285;28;20277;-65
2022/05/15 05:10:42;;;;;;;4.67;1.50;;;12.40;99.90;;;;;;5072300;28;20272;-66
2022/05/15 05:13:09;;;;;;;4.80;1.80;;;12.50;99.90;;;;;;5070561;28;20255;-66
2022/05/15 05:15:36;;;;;;;4.90;2.10;;;12.50;99.90;;;;;;5077835;28;20239;-65
2022/05/15 05:18:03;;;;;;;3.60;1.90;;;12.50;99.90;;;;;;5083082;28;20205;-65
2022/05/15 05:20:32;;;;;;;8.43;3.00;;;12.60;99.90;;;;;;5076956;28;20243;-66
2022/05/15 05:22:59;;;;;;;4.33;1.30;;;12.70;99.90;;;;;;5077801;28;20427;-65
2022/05/15 05:25:25;;;;;;;4.37;1.33;;;12.70;99.90;;;;;;5076431;28;20309;-67
2022/05/15 05:27:52;;;;;;;4.13;1.50;;;12.80;99.90;;;;;;5080493;28;20207;-66
2022/05/15 05:30:22;;;;;;;4.23;1.37;;;12.80;99.90;;;;;;5089675;28;20225;-65
2022/05/15 05:32:50;;;;;;;4.87;1.50;;;12.90;99.90;;;;;;5077782;28;20216;-65
2022/05/15 05:35:19;;;;;;;6.43;1.50;;;13.10;99.90;;;;;;5077261;28;20633;-65
2022/05/15 05:37:47;;;;;;;4.00;1.70;;;13.10;99.90;;;;;;5083285;28;20346;-65
2022/05/15 05:40:15;;;;;;;3.30;1.50;;;13.10;99.90;;;;;;5086100;28;20570;-64
2022/05/15 05:42:42;;;;;;;5.40;1.53;;;13.30;99.90;;;;;;5081591;28;20308;-64
2022/05/15 05:45:10;;;;;;;18.87;2.37;;;13.30;99.90;;;;;;5080481;28;20236;-66
2022/05/15 05:47:37;;;;;;;5.30;1.83;;;13.30;99.50;;;;;;5075258;28;20524;-66
2022/05/15 05:50:08;;;;;;;3.10;1.40;;;13.40;99.30;;;;;;5082927;28;20215;-66
2022/05/15 05:52:35;;;;;;;5.90;1.50;;;13.40;98.70;;;;;;5077628;28;20201;-66
2022/05/15 05:55:04;;;;;;;4.23;1.67;;;13.50;98.50;;;;;;5079104;28;20197;-65
2022/05/15 05:57:30;;;;;;;4.60;1.10;;;13.50;98.10;;;;;;5076030;28;20304;-66
2022/05/15 05:59:57;;;;;;;3.47;1.20;;;13.50;97.50;;;;;;5084577;28;20235;-65
2022/05/15 06:02:25;;;;;;;3.77;1.20;;;13.60;97.30;;;;;;5079943;28;20313;-65
2022/05/15 06:04:51;;;;;;;5.80;1.20;;;13.60;97.00;;;;;;5075151;28;20736;-66
2022/05/15 06:07:20;;;;;;;4.47;1.53;;;13.70;96.90;;;;;;5084266;28;20640;-66
2022/05/15 06:09:50;;;;;;;3.07;1.00;;;13.70;96.50;;;;;;5090405;28;20208;-65
2022/05/15 06:12:20;;;;;;;4.57;1.07;;;13.90;96.30;;;;;;5081667;28;20259;-66
2022/05/15 06:14:47;;;;;;;4.77;1.50;;;13.90;95.80;;;;;;5076719;28;20197;-66
2022/05/15 06:17:14;;;;;;;2.53;1.07;;;13.90;95.30;;;;;;5076516;28;20220;-68
2022/05/15 06:19:41;;;;;;;5.27;1.20;;;13.90;95.00;;;;;;5076199;28;20228;-66
2022/05/15 06:22:08;;;;;;;4.30;1.30;;;13.90;94.80;;;;;;5084255;28;20639;-67
2022/05/15 06:24:35;;;;;;;4.33;1.23;;;13.90;94.60;;;;;;5076212;28;20207;-67
2022/05/15 06:27:03;;;;;;;3.90;1.73;;;14.00;94.80;;;;;;5077452;28;20201;-66
2022/05/15 06:29:32;;;;;;;4.77;1.33;;;14.00;94.70;;;;;;5070826;28;20236;-66
2022/05/15 06:31:59;;;;;;;3.83;1.50;;;14.20;95.10;;;;;;5072120;28;20198;-66
2022/05/15 06:34:25;;;;;;;3.83;1.30;;;14.20;94.40;;;;;;5085086;28;20230;-69
2022/05/15 06:36:53;;;;;;;4.63;1.20;;;14.30;94.00;;;;;;5095901;28;20239;-67
2022/05/15 06:39:19;;;;;;;4.77;1.33;;;14.40;93.40;;;;;;5087833;28;20272;-70
2022/05/15 06:41:50;;;;;;;4.40;1.00;;;14.40;93.10;;;;;;5086376;28;20632;-71
2022/05/15 06:44:17;;;;;;;9.17;1.20;;;14.50;92.70;;;;;;5079176;28;20218;-70
2022/05/15 06:46:45;;;;;;;3.27;0.97;;;14.50;92.80;;;;;;5082743;28;20648;-70
2022/05/15 06:49:12;;;;;;;4.77;1.10;;;14.60;92.80;;;;;;5094031;28;20295;-71
2022/05/15 06:51:39;;;;;;;3.23;1.17;;;14.70;92.50;;;;;;5090249;28;20240;-70
2022/05/15 06:54:06;;;;;;;5.27;1.33;;;14.70;92.30;;;;;;5068590;28;20259;-69
2022/05/15 06:59:17;;;;;;;5.50;1.30;;;14.80;92.10;;;;;;5081280;28;20216;-68
2022/05/15 07:01:46;;;;;;;2.63;1.37;;;14.90;92.10;;;;;;5076276;28;20236;-70
2022/05/15 07:04:12;;;;;;;3.37;1.13;;;15.00;92.00;;;;;;5077834;28;20240;-69
2022/05/15 07:06:40;;;;;;;2.00;1.10;;;15.20;91.10;;;;;;5081049;28;20288;-71
2022/05/15 07:09:07;;;;;;;4.37;1.13;;;15.20;90.90;;;;;;5085350;28;20268;-67
2022/05/15 07:11:34;;;;;;;1.97;0.90;;;15.30;90.80;;;;;;5076207;28;20220;-67
2022/05/15 07:14:01;;;;;;;3.87;1.00;;;;;;;;;;5077957;28;20451;-67
2022/05/15 07:16:28;;;;;;;8.30;1.50;;;15.50;90.30;;;;;;5079467;28;20240;-65
2022/05/15 07:18:56;;;;;;;4.10;1.10;;;15.70;90.10;;;;;;5082049;28;20654;-68
2022/05/15 07:21:23;;;;;;;9.27;1.20;;;15.80;89.30;;;;;;5078854;28;20201;-67
2022/05/15 07:23:50;;;;;;;5.07;1.03;;;15.80;89.90;;;;;;5079462;28;20218;-69
2022/05/15 07:26:17;;;;;;;6.50;1.20;;;15.90;89.30;;;;;;5068905;28;20236;-67
2022/05/15 07:28:50;;;;;;;3.33;1.20;;;16.00;89.20;;;;;;5074220;28;20729;-69
2022/05/15 07:31:18;;;;;;;6.87;1.30;;;16.20;88.30;;;;;;5078592;28;20228;-69
2022/05/15 07:33:46;;;;;;;3.80;1.10;;;16.50;86.70;;;;;;5080769;28;20205;-70
2022/05/15 07:36:14;;;;;;;4.90;1.00;;;16.50;85.30;;;;;;5081568;28;20219;-70
2022/05/15 07:38:41;;;;;;;2.57;0.83;;;16.50;84.20;;;;;;5079442;28;20201;-71
2022/05/15 07:41:08;;;;;;;4.85;1.33;;;16.50;83.00;;;;;;5078043;28;20251;-68
2022/05/15 07:43:36;;;;;;;2.63;0.90;;;16.40;82.40;;;;;;5070782;28;20264;-71
2022/05/15 07:46:03;;;;;;;3.20;0.85;;;16.50;82.80;;;;;;5080975;28;20673;-70
2022/05/15 07:48:30;;;;;;;3.60;0.98;;;16.60;81.80;;;;;;5071887;28;20293;-69
2022/05/15 07:50:57;;;;;;;3.43;1.00;;;16.70;81.80;;;;;;5074937;28;20265;-72
2022/05/15 07:53:25;;;;;;;3.10;0.90;;;16.80;81.60;;;;;;5084738;28;20635;-69
2022/05/15 07:55:54;;;;;;;4.70;1.40;;;16.90;81.20;;;;;;5073137;28;20209;-69
2022/05/15 07:58:23;;;;;;;5.90;1.60;;;16.90;80.50;;;;;;5066412;28;21246;-70
2022/05/15 08:00:52;;;;;;;3.80;1.08;;;16.90;80.30;;;;;;5073879;28;20201;-70
2022/05/15 08:03:19;;;;;;;2.97;1.00;;;16.90;79.70;;;;;;5074145;28;20213;-70
2022/05/15 08:08:32;;;;;;;3.08;0.63;;;17.20;79.80;;;;;;5083568;28;20291;-70
2022/05/15 08:11:01;;;;;;;4.60;0.88;;;17.30;78.90;;;;;;5089908;28;20204;-69
2022/05/15 08:13:30;;;;;;;3.50;0.95;;;17.50;78.50;;;;;;5089379;28;20592;-69
2022/05/15 08:15:57;;;;;;;2.55;0.98;;;17.70;77.20;;;;;;5079410;28;20293;-67
2022/05/15 08:23:59;;;;;;;2.95;0.80;;;18.20;74.60;;;;;;5079769;28;20215;-68
2022/05/15 08:26:27;;;;;;;3.97;1.15;;;18.50;74.50;;;;;;5083137;28;20300;-69
2022/05/15 08:28:55;;;;;;;3.47;0.77;;;18.70;73.50;;;;;;5077556;28;20308;-68
2022/05/15 08:31:24;;;;;;;2.53;1.33;;;18.70;71.80;;;;;;5082587;28;20288;-68
2022/05/15 08:33:51;;;;;;;2.33;1.08;;;18.70;71.90;;;;;;5075808;28;20206;-68
2022/05/15 08:36:19;;;;;;;2.42;0.80;;;18.80;71.30;;;;;;5073343;28;20638;-68
2022/05/15 08:38:46;;;;;;;3.65;1.08;;;18.80;69.60;;;;;;5076215;28;20223;-68
2022/05/15 08:41:21;;;;;;;3.67;1.15;;;18.90;69.50;;;;;;5063882;28;20220;-68
2022/05/15 08:43:51;;;;;;;4.63;1.25;;;19.00;68.60;;;;;;5075181;28;20213;-68
2022/05/15 08:46:27;;;;;;;4.10;0.98;;;19.00;68.50;;;;;;5077260;28;20235;-68
2022/05/15 08:49:01;;;;;;;3.75;0.90;;;19.10;68.70;;;;;;5076437;28;20612;-68
2022/05/15 08:51:30;;;;;;;3.08;0.70;;;19.20;68.00;;;;;;5078101;28;20657;-68
2022/05/15 08:54:00;;;;;;;3.90;1.30;;;19.30;67.40;;;;;;5074600;28;20227;-69
2022/05/15 08:56:30;;;;;;;4.68;1.10;;;19.40;66.90;;;;;;5069935;28;20239;-68
2022/05/15 08:59:01;;;;;;;3.63;1.30;;;19.30;66.40;;;;;;5079368;28;20240;-69
2022/05/15 09:01:28;;;;;;;2.50;1.00;;;19.20;66.30;;;;;;5080984;28;20304;-68
2022/05/15 09:03:57;;;;;;;2.70;1.50;;;19.20;66.60;;;;;;5086965;28;20323;-68
2022/05/15 09:06:31;;;;;;;7.22;1.25;;;19.30;66.80;;;;;;5076593;28;20205;-68
2022/05/15 09:09:09;;;;;;;3.53;1.42;;;19.40;66.90;;;;;;5089610;28;20227;-68
2022/05/15 09:11:47;;;;;;;5.80;1.52;;;19.40;66.30;;;;;;5066719;28;20603;-68
2022/05/15 09:14:19;;;;;;;4.25;1.10;;;19.40;66.30;;;;;;5076161;28;20264;-67
2022/05/15 09:16:54;;;;;;;3.22;1.30;;;19.50;65.40;;;;;;5076380;28;20205;-68
2022/05/15 09:19:21;;;;;;;6.50;1.10;;;19.70;64.80;;;;;;5076908;28;20736;-68
2022/05/15 09:21:48;;;;;;;4.68;1.48;;;19.90;63.70;;;;;;5067587;28;20244;-67
2022/05/15 09:24:29;;;;;;;3.25;1.17;;;20.20;63.30;;;;;;5076724;28;20308;-70
2022/05/15 09:27:12;;;;;;;3.67;1.13;;;20.40;61.90;;;;;;5067029;28;20208;-68
2022/05/15 09:29:39;;;;;;;8.15;1.58;;;20.50;62.10;;;;;;5071075;28;20245;-68
2022/05/15 09:32:17;;;;;;;3.58;1.10;;;20.50;61.40;;;;;;5075054;28;20292;-69
2022/05/15 09:34:45;;;;;;;3.53;1.30;;;20.70;61.50;;;;;;5060808;28;20236;-68
2022/05/15 09:40:12;;;;;;;6.15;1.65;;;20.70;60.70;;;;;;5075261;28;20267;-69
2022/05/15 09:45:39;;;;;;;3.53;1.10;;;20.30;60.90;;;;;;5076390;28;20212;-69
2022/05/15 09:48:12;;;;;;;3.88;1.05;;;20.30;61.40;;;;;;5088880;28;20205;-68
2022/05/15 09:50:43;;;;;;;3.28;1.20;;;20.40;61.00;;;;;;5078747;28;20662;-70
2022/05/15 09:53:14;;;;;;;2.95;0.90;;;20.40;60.20;;;;;;5076975;28;20216;-68
2022/05/15 09:55:42;;;;;;;1.90;1.00;;;20.50;59.40;;;;;;5079414;28;20616;-68
2022/05/15 09:58:19;;;;;;;2.60;1.10;;;20.50;58.80;;;;;;5079599;28;20244;-68
2022/05/15 10:00:47;;;;;;;6.03;1.15;;;20.60;59.10;;;;;;5093075;28;20300;-67
2022/05/15 10:03:22;;;;;;;3.90;1.35;;;20.90;59.50;;;;;;5068306;28;20724;-68
2022/05/15 10:05:58;;;;;;;3.50;1.17;;;21.10;58.50;;;;;;5076170;28;20283;-67
2022/05/15 10:08:28;;;;;;;4.40;1.17;;;21.10;58.00;;;;;;5078425;28;20577;-68
2022/05/15 10:11:00;;;;;;;5.55;0.90;;;21.10;57.70;;;;;;5078960;28;20205;-68
2022/05/15 10:13:33;;;;;;;2.03;1.02;;;21.10;58.00;;;;;;5079376;28;20617;-68
2022/05/15 10:16:07;;;;;;;4.35;1.10;;;21.30;58.20;;;;;;5075227;28;20640;-68
2022/05/15 10:18:48;;;;;;;2.50;0.98;;;21.40;57.60;;;;;;5069947;28;20212;-68
2022/05/15 10:21:16;;;;;;;3.92;1.00;;;21.20;56.90;;;;;;5078636;28;20205;-68
2022/05/15 10:23:49;;;;;;;2.88;1.17;;;21.10;57.00;;;;;;5078665;28;20218;-67
2022/05/15 10:26:20;;;;;;;4.32;1.00;;;21.20;57.20;;;;;;5078956;28;20220;-69
2022/05/15 10:28:55;;;;;;;3.55;1.20;;;21.30;56.50;;;;;;5078814;28;20229;-67
2022/05/15 10:31:27;;;;;;;2.15;1.15;;;21.50;56.60;;;;;;5077056;28;20219;-69
2022/05/15 10:33:57;;;;;;;1.33;0.75;;;21.60;56.00;;;;;;5066744;28;20205;-69
2022/05/15 10:36:50;;;;;;;5.10;1.30;;;21.80;56.20;;;;;;5084957;28;20664;-69
2022/05/15 10:39:27;;;;;;;5.78;1.02;;;22.10;55.80;;;;;;5068558;28;20290;-68
2022/05/15 10:42:13;;;;;;;2.55;1.00;;;22.40;55.20;;;;;;5089979;28;20267;-69
2022/05/15 10:44:51;;;;;;;4.47;1.10;;;22.40;54.50;;;;;;5085090;28;20271;-69
2022/05/15 10:47:21;;;;;;;2.90;0.90;;;22.40;54.50;;;;;;5076121;28;20255;-69
2022/05/15 10:50:14;;;;;;;2.10;1.02;;;22.50;54.40;;;;;;5076994;28;20209;-70
2022/05/15 10:52:51;;;;;;;2.47;0.95;;;22.60;54.00;;;;;;5067159;28;20201;-69
2022/05/15 10:58:17;;;;;;;2.25;1.25;;;22.90;53.10;;;;;;5086777;28;20192;-67
2022/05/15 11:00:56;;;;;;;3.58;1.02;;;23.20;53.40;;;;;;5082942;28;20581;-68
2022/05/15 11:03:59;;;;;;;2.40;1.13;;;23.50;52.80;;;;;;5069656;28;20205;-69
2022/05/15 11:06:41;;;;;;;3.42;0.93;;;23.70;52.50;;;;;;5081570;28;20208;-69
2022/05/15 11:09:14;;;;;;;2.78;1.00;;;23.90;52.00;;;;;;5083664;28;20783;-69
2022/05/15 11:11:52;;;;;;;3.28;1.25;;;23.80;50.80;;;;;;5077358;28;20673;-69
2022/05/15 11:14:26;;;;;;;2.17;1.10;;;23.70;51.00;;;;;;5077784;28;20246;-69
2022/05/15 11:17:05;;;;;;;3.75;1.27;;;23.80;51.30;;;;;;5073567;28;20575;-71
2022/05/15 11:19:37;;;;;;;2.90;1.13;;;23.70;51.00;;;;;;5075759;28;20205;-69
2022/05/15 11:22:16;;;;;;;2.58;1.60;;;23.50;51.00;;;;;;5076427;28;20213;-69
2022/05/15 11:24:49;;;;;;;4.43;1.50;;;23.40;50.90;;;;;;5070518;28;20205;-68
2022/05/15 11:27:22;;;;;;;3.35;1.45;;;23.40;50.50;;;;;;5083209;28;20648;-69
2022/05/15 11:29:51;;;;;;;2.60;1.20;;;23.50;50.60;;;;;;5090776;28;20225;-70
2022/05/15 11:32:33;;;;;;;3.35;1.08;;;23.70;50.20;;;;;;5084716;28;20205;-69
2022/05/15 11:35:12;;;;;;;1.63;0.90;;;23.80;49.50;;;;;;5089107;28;20211;-70
2022/05/15 11:37:45;;;;;;;3.42;0.82;;;23.70;49.60;;;;;;5093298;28;20540;-70
2022/05/15 11:40:29;;;;;;;3.95;0.98;;;23.50;50.10;;;;;;5074835;28;20572;-69
2022/05/15 11:42:56;;;;;;;2.22;1.00;;;23.20;50.20;;;;;;5075516;28;20205;-69
2022/05/15 11:45:39;;;;;;;2.33;1.00;;;23.20;50.80;;;;;;5076063;28;20224;-68
2022/05/15 11:48:21;;;;;;;3.67;1.00;;;23.30;50.80;;;;;;5068011;28;20205;-68
2022/05/15 11:50:57;;;;;;;2.38;0.90;;;23.20;49.50;;;;;;5073585;28;20205;-70
2022/05/15 11:53:28;;;;;;;4.43;1.10;;;23.00;49.70;;;;;;5076609;28;20197;-69
2022/05/15 11:55:56;;;;;;;1.52;0.88;;;22.90;50.50;;;;;;5073257;28;20285;-68
2022/05/15 11:58:33;;;;;;;3.15;0.80;;;23.20;50.30;;;;;;5074988;28;20696;-70
2022/05/15 12:01:41;;;;;;;2.83;0.93;;;23.40;50.00;;;;;;5060891;28;21395;-70
2022/05/15 12:04:16;;;;;;;3.13;1.10;;;23.40;49.50;;;;;;5071959;28;20213;-69
2022/05/15 12:06:48;;;;;;;5.60;1.00;;;23.30;49.50;;;;;;5078339;28;20264;-70
2022/05/15 12:09:33;;;;;;;3.50;0.82;;;23.10;49.30;;;;;;5073592;28;20202;-70
2022/05/15 12:12:42;;;;;;;4.18;0.95;;;23.00;49.20;;;;;;5069067;28;20279;-70
2022/05/15 12:15:24;;;;;;;2.97;1.13;;;23.00;49.20;;;;;;5055689;28;20227;-70
2022/05/15 12:17:56;;;;;;;1.92;1.00;;;22.90;49.40;;;;;;5075256;28;20269;-71
2022/05/15 12:20:35;;;;;;;2.20;1.00;;;22.80;49.70;;;;;;5082867;28;20217;-70
2022/05/15 12:23:06;;;;;;;6.55;0.90;;;22.60;49.90;;;;;;5071182;28;20247;-70
2022/05/15 12:25:45;;;;;;;4.07;1.00;;;22.60;50.30;;;;;;5080479;28;20204;-69
2022/05/15 12:31:05;;;;;;;4.45;1.10;;;22.60;50.30;;;;;;5073949;28;20247;-69
2022/05/15 12:33:39;;;;;;;2.67;0.95;;;22.40;49.80;;;;;;5073463;28;20288;-69
2022/05/15 12:36:12;;;;;;;1.27;0.80;;;22.20;50.60;;;;;;5085653;28;20193;-69
2022/05/15 12:38:45;;;;;;;4.53;1.20;;;22.20;50.20;;;;;;5080246;28;20283;-68
2022/05/15 12:41:17;;;;;;;2.10;0.70;;;22.30;50.30;;;;;;5074256;28;20201;-69
2022/05/15 12:43:49;;;;;;;6.20;1.20;;;22.30;50.20;;;;;;5067879;28;20353;-69
2022/05/15 12:46:27;;;;;;;2.55;1.38;;;22.50;50.40;;;;;;5070020;28;20219;-69
2022/05/15 12:48:54;;;;;;;3.80;1.13;;;22.50;49.70;;;;;;5079849;28;20547;-69
2022/05/15 12:51:31;;;;;;;2.30;1.10;;;22.40;49.30;;;;;;5081311;28;20605;-69
2022/05/15 12:54:00;;;;;;;3.40;1.00;;;22.30;49.60;;;;;;5087864;28;20197;-69
2022/05/15 12:56:30;;;;;;;4.68;1.00;;;22.20;49.50;;;;;;5084103;28;20548;-68
2022/05/15 12:58:59;;;;;;;2.80;1.00;;;22.20;50.00;;;;;;5089623;28;20211;-69
2022/05/15 13:01:28;;;;;;;3.90;0.80;;;22.10;50.10;;;;;;5080857;28;20664;-68
2022/05/15 13:03:58;;;;;;;2.25;1.10;;;22.20;50.00;;;;;;5083497;28;20216;-70
2022/05/15 13:06:32;;;;;;;3.58;1.00;;;22.30;50.00;;;;;;5092484;28;20207;-68
2022/05/15 13:09:02;;;;;;;3.88;0.90;;;22.50;49.70;;;;;;5082586;28;20212;-69
2022/05/15 13:11:39;;;;;;;3.50;1.00;;;22.60;49.40;;;;;;5068126;28;20529;-67
2022/05/15 13:14:12;;;;;;;3.05;1.30;;;22.70;49.30;;;;;;5073319;28;20232;-68
2022/05/15 13:16:44;;;;;;;3.78;0.80;;;22.60;48.90;;;;;;5073835;28;20209;-68
2022/05/15 13:19:14;;;;;;;1.75;0.63;;;22.40;49.00;;;;;;5075275;28;20228;-68
2022/05/15 13:21:47;;;;;;;3.20;1.08;;;22.30;49.40;;;;;;5074073;28;20201;-68
2022/05/15 13:24:17;;;;;;;4.28;0.95;;;22.30;49.60;;;;;;5061570;28;20293;-68
2022/05/15 13:26:49;;;;;;;5.88;1.00;;;22.30;49.30;;;;;;5075741;28;20661;-69
2022/05/15 13:29:19;;;;;;;1.45;0.70;;;22.20;49.60;;;;;;5088930;28;20225;-67